createdAt,value
2019-05-14T00:01:03.736Z,15.07
2019-05-14T00:02:08.721Z,15.18
2019-05-14T00:03:14.283Z,15.26
2019-05-14T00:04:19.031Z,15.17
2019-05-14T00:05:24.850Z,14.87
2019-05-14T00:06:31.155Z,14.91
2019-05-14T00:07:36.491Z,14.91
2019-05-14T00:08:41.796Z,15.05
2019-05-14T00:09:47.040Z,15.03
2019-05-14T00:10:52.503Z,14.75
2019-05-14T00:11:57.781Z,14.79
2019-05-14T00:13:03.114Z,14.92
2019-05-14T00:14:08.652Z,14.83
2019-05-14T00:15:14.046Z,14.80
2019-05-14T00:16:22.241Z,14.91
2019-05-14T00:17:26.288Z,14.89
2019-05-14T00:18:31.753Z,14.85
2019-05-14T00:19:36.703Z,14.95
2019-05-14T00:20:42.114Z,14.84
2019-05-14T00:21:47.553Z,14.60
2019-05-14T00:22:53.654Z,14.86
2019-05-14T00:23:58.723Z,14.88
2019-05-14T00:25:05.043Z,14.93
2019-05-14T00:26:12.150Z,14.72
2019-05-14T00:27:17.416Z,14.83
2019-05-14T00:28:22.645Z,14.65
2019-05-14T00:29:28.218Z,14.59
2019-05-14T00:30:33.809Z,14.61
2019-05-14T00:31:39.402Z,14.36
2019-05-14T00:32:44.380Z,14.57
2019-05-14T00:33:51.268Z,14.76
2019-05-14T00:34:56.795Z,14.47
2019-05-14T00:36:02.653Z,14.42
2019-05-14T00:37:07.978Z,14.50
2019-05-14T00:38:13.799Z,14.64
2019-05-14T00:39:21.331Z,14.52
2019-05-14T00:40:27.059Z,14.82
2019-05-14T00:41:32.342Z,14.52
2019-05-14T00:42:38.201Z,14.55
2019-05-14T00:43:43.178Z,14.72
2019-05-14T00:44:54.530Z,14.58
2019-05-14T00:45:55.208Z,14.63
2019-05-14T00:47:02.218Z,14.49
2019-05-14T00:48:07.170Z,14.31
2019-05-14T00:49:12.723Z,14.63
2019-05-14T00:50:17.526Z,14.52
2019-05-14T00:51:23.206Z,14.47
2019-05-14T00:52:27.930Z,14.36
2019-05-14T00:53:33.488Z,14.40
2019-05-14T00:54:38.871Z,14.49
2019-05-14T00:55:44.980Z,14.23
2019-05-14T00:56:52.059Z,14.25
2019-05-14T00:57:57.313Z,14.44
2019-05-14T00:59:02.681Z,14.31
2019-05-14T01:00:07.796Z,14.44
2019-05-14T01:01:13.380Z,14.34
2019-05-14T01:02:21.617Z,14.40
2019-05-14T01:03:25.947Z,14.34
2019-05-14T01:04:31.681Z,14.45
2019-05-14T01:05:37.242Z,14.27
2019-05-14T01:06:42.523Z,14.33
2019-05-14T01:07:47.672Z,14.43
2019-05-14T01:08:53.949Z,14.25
2019-05-14T01:10:01.179Z,14.27
2019-05-14T01:11:06.357Z,14.19
2019-05-14T01:12:14.139Z,14.19
2019-05-14T01:13:21.977Z,14.00
2019-05-14T01:14:26.778Z,14.08
2019-05-14T01:15:32.390Z,13.94
2019-05-14T01:16:37.529Z,14.01
2019-05-14T01:17:43.077Z,14.06
2019-05-14T01:18:48.209Z,14.19
2019-05-14T01:19:54.303Z,14.05
2019-05-14T01:21:01.080Z,13.97
2019-05-14T01:22:06.593Z,14.10
2019-05-14T01:23:11.580Z,13.96
2019-05-14T01:24:17.723Z,14.13
2019-05-14T01:25:23.646Z,13.99
2019-05-14T01:26:31.060Z,14.19
2019-05-14T01:27:36.276Z,14.13
2019-05-14T01:28:42.161Z,13.92
2019-05-14T01:29:47.561Z,13.91
2019-05-14T01:30:53.522Z,14.10
2019-05-14T01:31:58.665Z,14.07
2019-05-14T01:33:04.050Z,14.11
2019-05-14T01:34:11.186Z,14.10
2019-05-14T01:35:16.462Z,14.25
2019-05-14T01:36:21.691Z,13.95
2019-05-14T01:37:27.169Z,13.86
2019-05-14T01:38:31.932Z,13.98
2019-05-14T01:39:38.022Z,13.98
2019-05-14T01:40:43.318Z,13.81
2019-05-14T01:41:51.526Z,13.80
2019-05-14T01:42:57.135Z,13.94
2019-05-14T01:44:03.124Z,14.03
2019-05-14T01:45:21.914Z,13.92
2019-05-14T01:46:15.407Z,13.97
2019-05-14T01:47:21.379Z,13.90
2019-05-14T01:48:26.828Z,13.94
2019-05-14T01:49:31.978Z,13.88
2019-05-14T01:50:37.548Z,14.01
2019-05-14T01:51:42.551Z,13.94
2019-05-14T01:52:48.393Z,13.70
2019-05-14T01:53:53.767Z,13.82
2019-05-14T01:54:59.324Z,13.69
2019-05-14T01:56:04.725Z,13.54
2019-05-14T01:57:11.485Z,13.66
2019-05-14T01:58:16.821Z,13.48
2019-05-14T01:59:21.832Z,13.37
2019-05-14T02:00:26.653Z,13.49
2019-05-14T02:01:32.002Z,13.57
2019-05-14T02:02:37.330Z,13.55
2019-05-14T02:03:43.168Z,13.41
2019-05-14T02:04:47.957Z,13.66
2019-05-14T02:05:53.878Z,13.43
2019-05-14T02:06:59.151Z,13.52
2019-05-14T02:08:04.730Z,13.51
2019-05-14T02:09:11.113Z,13.41
2019-05-14T02:10:17.875Z,13.27
2019-05-14T02:11:23.208Z,13.58
2019-05-14T02:12:28.817Z,13.43
2019-05-14T02:13:33.842Z,13.44
2019-05-14T02:14:39.102Z,13.36
2019-05-14T02:15:43.806Z,13.30
2019-05-14T02:16:51.078Z,13.35
2019-05-14T02:17:56.248Z,13.27
2019-05-14T02:19:02.373Z,13.19
2019-05-14T02:20:07.922Z,13.31
2019-05-14T02:21:13.499Z,13.14
2019-05-14T02:22:18.472Z,12.95
2019-05-14T02:23:24.143Z,13.05
2019-05-14T02:24:29.434Z,13.04
2019-05-14T02:25:34.966Z,13.14
2019-05-14T02:26:42.205Z,13.11
2019-05-14T02:27:47.488Z,13.06
2019-05-14T02:28:53.019Z,13.15
2019-05-14T02:29:58.323Z,13.05
2019-05-14T02:31:04.064Z,13.14
2019-05-14T02:32:11.863Z,13.00
2019-05-14T02:33:19.238Z,12.90
2019-05-14T02:34:23.755Z,13.05
2019-05-14T02:35:29.825Z,13.13
2019-05-14T02:36:35.112Z,13.09
2019-05-14T02:37:40.524Z,12.91
2019-05-14T02:38:49.100Z,12.86
2019-05-14T02:39:59.470Z,13.10
2019-05-14T02:41:03.349Z,12.87
2019-05-14T02:42:09.418Z,12.94
2019-05-14T02:43:16.081Z,12.85
2019-05-14T02:44:21.644Z,13.11
2019-05-14T02:45:30.069Z,12.89
2019-05-14T02:46:34.044Z,13.04
2019-05-14T02:47:41.682Z,13.15
2019-05-14T02:48:49.115Z,13.09
2019-05-14T02:49:58.765Z,12.81
2019-05-14T02:51:03.062Z,12.75
2019-05-14T02:52:10.020Z,12.82
2019-05-14T02:53:19.528Z,12.96
2019-05-14T02:54:23.337Z,13.21
2019-05-14T02:55:29.889Z,12.82
2019-05-14T02:56:35.116Z,12.84
2019-05-14T02:57:40.749Z,12.93
2019-05-14T02:58:49.629Z,13.01
2019-05-14T02:59:53.621Z,12.84
2019-05-14T03:01:00.423Z,12.79
2019-05-14T03:02:05.836Z,12.73
2019-05-14T03:03:11.375Z,12.70
2019-05-14T03:04:19.768Z,12.74
2019-05-14T03:05:24.562Z,12.82
2019-05-14T03:06:29.911Z,12.73
2019-05-14T03:07:38.971Z,12.58
2019-05-14T03:08:42.675Z,12.53
2019-05-14T03:09:50.244Z,12.21
2019-05-14T03:10:55.505Z,12.35
2019-05-14T03:12:01.019Z,12.41
2019-05-14T03:13:05.731Z,12.23
2019-05-14T03:14:11.354Z,12.35
2019-05-14T03:15:16.093Z,12.32
2019-05-14T03:16:30.426Z,12.39
2019-05-14T03:17:29.987Z,12.12
2019-05-14T03:18:39.419Z,12.28
2019-05-14T03:19:42.890Z,12.27
2019-05-14T03:20:50.220Z,12.19
2019-05-14T03:21:55.546Z,12.13
2019-05-14T03:23:08.481Z,12.23
2019-05-14T03:24:09.462Z,12.11
2019-05-14T03:25:15.333Z,12.17
2019-05-14T03:26:20.373Z,12.17
2019-05-14T03:27:30.091Z,12.15
2019-05-14T03:28:32.868Z,12.32
2019-05-14T03:29:39.798Z,12.61
2019-05-14T03:30:45.249Z,12.52
2019-05-14T03:31:52.892Z,12.38
2019-05-14T03:33:02.902Z,12.35
2019-05-14T03:34:04.838Z,12.19
2019-05-14T03:35:13.626Z,12.37
2019-05-14T03:36:23.820Z,12.29
2019-05-14T03:37:24.592Z,12.25
2019-05-14T03:38:30.434Z,12.18
2019-05-14T03:39:35.456Z,12.39
2019-05-14T03:40:41.074Z,12.30
2019-05-14T03:41:46.130Z,12.15
2019-05-14T03:42:51.804Z,12.14
2019-05-14T03:43:59.803Z,12.02
2019-05-14T03:45:04.116Z,12.05
2019-05-14T03:46:09.786Z,12.11
2019-05-14T03:47:15.740Z,11.90
2019-05-14T03:48:21.144Z,12.15
2019-05-14T03:49:28.821Z,12.01
2019-05-14T03:50:34.233Z,12.10
2019-05-14T03:51:40.079Z,12.03
2019-05-14T03:52:45.346Z,12.16
2019-05-14T03:54:01.121Z,12.23
2019-05-14T03:55:01.294Z,12.04
2019-05-14T03:56:04.312Z,12.00
2019-05-14T03:57:10.075Z,11.87
2019-05-14T03:58:15.156Z,11.97
2019-05-14T03:59:20.890Z,11.88
2019-05-14T04:00:50.860Z,11.88
2019-05-14T04:01:59.389Z,12.09
2019-05-14T04:03:03.982Z,12.03
2019-05-14T04:04:10.379Z,12.09
2019-05-14T04:05:18.877Z,11.98
2019-05-14T04:06:24.218Z,12.15
2019-05-14T04:07:32.286Z,11.97
2019-05-14T04:08:39.778Z,11.82
2019-05-14T04:09:49.469Z,12.09
2019-05-14T04:10:58.964Z,11.97
2019-05-14T04:12:05.587Z,12.01
2019-05-14T04:13:12.175Z,12.10
2019-05-14T04:14:20.261Z,11.94
2019-05-14T04:15:29.843Z,11.84
2019-05-14T04:16:39.841Z,11.93
2019-05-14T04:17:49.866Z,12.15
2019-05-14T04:18:59.233Z,12.21
2019-05-14T04:20:04.247Z,12.11
2019-05-14T04:21:10.497Z,12.11
2019-05-14T04:22:15.071Z,12.09
2019-05-14T04:23:24.210Z,12.17
2019-05-14T04:24:31.534Z,12.27
2019-05-14T04:25:39.315Z,12.19
2019-05-14T04:26:58.353Z,12.27
2019-05-14T04:27:59.590Z,12.14
2019-05-14T04:29:05.089Z,12.20
2019-05-14T04:30:12.803Z,12.13
2019-05-14T04:31:19.285Z,11.98
2019-05-14T04:32:28.951Z,12.15
2019-05-14T04:33:35.383Z,12.22
2019-05-14T04:34:41.184Z,12.24
2019-05-14T04:35:49.000Z,12.33
2019-05-14T04:36:54.345Z,12.19
2019-05-14T04:37:59.444Z,12.16
2019-05-14T04:39:09.195Z,12.26
2019-05-14T04:40:12.768Z,12.25
2019-05-14T04:41:19.720Z,12.26
2019-05-14T04:42:25.424Z,12.27
2019-05-14T04:43:31.744Z,12.09
2019-05-14T04:44:39.996Z,12.26
2019-05-14T04:45:44.202Z,12.17
2019-05-14T04:46:49.674Z,12.32
2019-05-14T04:47:55.445Z,12.59
2019-05-14T04:49:00.260Z,12.56
2019-05-14T04:50:10.235Z,12.30
2019-05-14T04:51:13.549Z,12.40
2019-05-14T04:52:20.566Z,12.38
2019-05-14T04:53:26.198Z,12.27
2019-05-14T04:54:31.814Z,12.33
2019-05-14T04:55:39.899Z,12.18
2019-05-14T04:56:44.497Z,12.47
2019-05-14T04:57:50.397Z,12.44
2019-05-14T04:58:55.991Z,12.35
2019-05-14T05:00:00.900Z,12.39
2019-05-14T05:01:09.801Z,12.52
2019-05-14T05:02:14.427Z,12.45
2019-05-14T05:03:20.251Z,12.49
2019-05-14T05:04:25.556Z,12.51
2019-05-14T05:05:31.448Z,12.57
2019-05-14T05:06:39.374Z,12.46
2019-05-14T05:07:43.234Z,12.54
2019-05-14T05:08:49.896Z,12.46
2019-05-14T05:09:59.144Z,12.46
2019-05-14T05:11:03.077Z,12.51
2019-05-14T05:12:09.489Z,12.48
2019-05-14T05:13:14.520Z,12.42
2019-05-14T05:14:23.624Z,12.53
2019-05-14T05:15:29.076Z,12.36
2019-05-14T05:16:34.812Z,12.53
2019-05-14T05:17:48.273Z,12.44
2019-05-14T05:18:49.183Z,12.33
2019-05-14T05:19:54.135Z,12.37
2019-05-14T05:20:59.425Z,12.40
2019-05-14T05:22:03.898Z,12.54
2019-05-14T05:23:09.768Z,12.59
2019-05-14T05:24:14.547Z,12.71
2019-05-14T05:25:20.538Z,13.00
2019-05-14T05:26:25.311Z,13.12
2019-05-14T05:27:30.920Z,12.88
2019-05-14T05:28:38.898Z,13.04
2019-05-14T05:29:44.299Z,13.07
2019-05-14T05:30:49.452Z,13.00
2019-05-14T05:31:54.850Z,13.11
2019-05-14T05:33:00.191Z,13.14
2019-05-14T05:34:05.921Z,13.15
2019-05-14T05:35:10.465Z,13.11
2019-05-14T05:36:15.658Z,13.11
2019-05-14T05:37:20.730Z,13.16
2019-05-14T05:38:26.076Z,13.38
2019-05-14T05:39:31.439Z,13.25
2019-05-14T05:40:39.174Z,13.28
2019-05-14T05:41:44.205Z,13.15
2019-05-14T05:42:50.354Z,13.51
2019-05-14T05:43:59.067Z,13.67
2019-05-14T05:45:04.719Z,13.95
2019-05-14T05:46:10.005Z,13.85
2019-05-14T05:47:18.031Z,13.80
2019-05-14T05:48:22.302Z,13.98
2019-05-14T05:49:29.136Z,13.94
2019-05-14T05:50:34.205Z,14.26
2019-05-14T05:51:39.920Z,14.44
2019-05-14T05:52:44.659Z,14.52
2019-05-14T05:53:50.353Z,14.50
2019-05-14T05:54:55.277Z,14.66
2019-05-14T05:56:01.223Z,14.78
2019-05-14T05:57:09.043Z,15.00
2019-05-14T05:58:13.705Z,14.90
2019-05-14T05:59:18.998Z,14.94
2019-05-14T06:00:35.549Z,15.37
2019-05-14T06:01:46.018Z,15.28
2019-05-14T06:02:49.093Z,15.24
2019-05-14T06:03:54.177Z,15.33
2019-05-14T06:05:00.164Z,15.75
2019-05-14T06:06:04.993Z,15.80
2019-05-14T06:07:11.092Z,15.90
2019-05-14T06:08:18.714Z,15.70
2019-05-14T06:09:23.838Z,15.93
2019-05-14T06:10:29.374Z,15.64
2019-05-14T06:11:34.698Z,16.16
2019-05-14T06:12:39.808Z,16.13
2019-05-14T06:13:48.314Z,16.61
2019-05-14T06:14:53.004Z,17.79
2019-05-14T06:15:59.355Z,19.65
2019-05-14T06:17:04.662Z,21.36
2019-05-14T06:18:17.374Z,22.95
2019-05-14T06:19:18.572Z,23.31
2019-05-14T06:20:23.646Z,23.93
2019-05-14T06:21:29.347Z,24.24
2019-05-14T06:22:35.280Z,25.35
2019-05-14T06:23:40.081Z,25.79
2019-05-14T06:24:48.344Z,26.19
2019-05-14T06:25:54.835Z,26.39
2019-05-14T06:27:00.689Z,26.95
2019-05-14T06:28:05.828Z,26.09
2019-05-14T06:29:11.779Z,26.98
2019-05-14T06:30:28.493Z,27.01
2019-05-14T06:31:34.361Z,28.10
2019-05-14T06:32:39.859Z,27.25
2019-05-14T06:33:48.415Z,28.12
2019-05-14T06:34:52.647Z,28.94
2019-05-14T06:35:59.161Z,28.34
2019-05-14T06:37:04.931Z,28.51
2019-05-14T06:38:10.617Z,29.21
2019-05-14T06:39:18.204Z,29.21
2019-05-14T06:40:23.196Z,28.76
2019-05-14T06:41:28.802Z,28.46
2019-05-14T06:42:34.751Z,28.71
2019-05-14T06:43:39.863Z,29.12
2019-05-14T06:44:45.269Z,30.24
2019-05-14T06:45:50.092Z,29.08
2019-05-14T06:46:55.698Z,29.58
2019-05-14T06:48:00.721Z,30.15
2019-05-14T06:49:08.931Z,29.01
2019-05-14T06:50:12.984Z,29.71
2019-05-14T06:51:19.835Z,29.14
2019-05-14T06:52:25.557Z,30.16
2019-05-14T06:53:30.682Z,30.16
2019-05-14T06:54:35.450Z,30.51
2019-05-14T06:55:41.459Z,30.35
2019-05-14T06:56:48.655Z,31.12
2019-05-14T06:57:53.346Z,30.49
2019-05-14T06:58:58.679Z,29.29
2019-05-14T07:00:04.537Z,29.14
2019-05-14T07:01:09.972Z,27.94
2019-05-14T07:02:15.835Z,28.70
2019-05-14T07:03:20.619Z,27.52
2019-05-14T07:04:28.624Z,27.37
2019-05-14T07:05:33.413Z,27.81
2019-05-14T07:06:39.229Z,28.26
2019-05-14T07:07:44.636Z,28.05
2019-05-14T07:08:52.663Z,29.68
2019-05-14T07:09:58.180Z,29.93
2019-05-14T07:11:04.090Z,30.78
2019-05-14T07:12:09.230Z,28.93
2019-05-14T07:13:14.635Z,30.00
2019-05-14T07:14:19.744Z,31.85
2019-05-14T07:15:25.024Z,32.00
2019-05-14T07:16:29.534Z,33.38
2019-05-14T07:17:34.900Z,32.94
2019-05-14T07:18:52.790Z,33.04
2019-05-14T07:19:49.110Z,33.31
2019-05-14T07:20:54.891Z,34.17
2019-05-14T07:22:00.003Z,33.39
2019-05-14T07:23:05.061Z,34.70
2019-05-14T07:24:11.351Z,33.38
2019-05-14T07:25:18.364Z,33.83
2019-05-14T07:26:24.055Z,34.37
2019-05-14T07:27:29.094Z,34.32
2019-05-14T07:28:34.708Z,33.00
2019-05-14T07:29:39.498Z,31.58
2019-05-14T07:30:45.164Z,33.57
2019-05-14T07:31:50.306Z,33.69
2019-05-14T07:32:55.958Z,33.69
2019-05-14T07:34:01.425Z,33.76
2019-05-14T07:35:09.118Z,32.86
2019-05-14T07:36:14.362Z,33.33
2019-05-14T07:37:20.273Z,34.99
2019-05-14T07:38:25.370Z,35.30
2019-05-14T07:39:30.974Z,34.98
2019-05-14T07:40:38.702Z,35.36
2019-05-14T07:41:43.456Z,35.79
2019-05-14T07:42:48.849Z,34.41
2019-05-14T07:43:54.629Z,34.14
2019-05-14T07:45:00.087Z,34.19
2019-05-14T07:46:05.716Z,35.24
2019-05-14T07:47:10.832Z,36.30
2019-05-14T07:48:18.848Z,34.40
2019-05-14T07:49:23.630Z,35.03
2019-05-14T07:50:29.259Z,35.74
2019-05-14T07:51:34.356Z,35.59
2019-05-14T07:52:45.285Z,35.69
2019-05-14T07:53:48.523Z,35.96
2019-05-14T07:54:54.135Z,36.38
2019-05-14T07:55:59.358Z,36.75
2019-05-14T07:57:05.319Z,34.45
2019-05-14T07:58:10.462Z,34.36
2019-05-14T07:59:18.127Z,35.44
2019-05-14T08:00:23.515Z,36.08
2019-05-14T08:01:28.865Z,35.41
2019-05-14T08:02:33.641Z,34.35
2019-05-14T08:03:39.605Z,36.50
2019-05-14T08:04:44.726Z,35.68
2019-05-14T08:05:49.805Z,35.13
2019-05-14T08:06:58.040Z,35.96
2019-05-14T08:08:03.528Z,36.06
2019-05-14T08:09:09.550Z,36.59
2019-05-14T08:10:15.461Z,36.37
2019-05-14T08:11:20.604Z,36.77
2019-05-14T08:12:25.937Z,37.36
2019-05-14T08:13:30.732Z,37.48
2019-05-14T08:14:45.211Z,36.87
2019-05-14T08:15:43.551Z,36.97
2019-05-14T08:16:49.592Z,37.66
2019-05-14T08:17:54.718Z,35.99
2019-05-14T08:19:00.322Z,37.36
2019-05-14T08:20:06.115Z,36.91
2019-05-14T08:21:12.191Z,38.20
2019-05-14T08:22:18.642Z,38.36
2019-05-14T08:23:24.360Z,38.89
2019-05-14T08:24:30.107Z,37.63
2019-05-14T08:25:38.799Z,37.29
2019-05-14T08:26:44.289Z,37.76
2019-05-14T08:27:49.818Z,36.57
2019-05-14T08:28:55.202Z,36.44
2019-05-14T08:30:01.172Z,36.81
2019-05-14T08:31:06.263Z,36.23
2019-05-14T08:32:11.965Z,37.96
2019-05-14T08:33:18.451Z,39.01
2019-05-14T08:34:24.224Z,38.92
2019-05-14T08:35:29.341Z,37.75
2019-05-14T08:36:38.002Z,39.28
2019-05-14T08:37:43.446Z,39.79
2019-05-14T08:38:50.272Z,41.15
2019-05-14T08:39:55.255Z,40.07
2019-05-14T08:41:01.438Z,41.26
2019-05-14T08:42:08.525Z,41.27
2019-05-14T08:43:13.703Z,39.12
2019-05-14T08:44:19.694Z,40.40
2019-05-14T08:45:28.218Z,40.58
2019-05-14T08:46:32.606Z,40.47
2019-05-14T08:47:39.125Z,40.27
2019-05-14T08:48:45.046Z,40.09
2019-05-14T08:49:51.129Z,38.83
2019-05-14T08:50:56.051Z,40.98
2019-05-14T08:52:01.696Z,41.24
2019-05-14T08:53:08.891Z,40.81
2019-05-14T08:54:13.518Z,41.37
2019-05-14T08:55:18.636Z,40.53
2019-05-14T08:56:23.923Z,40.08
2019-05-14T08:57:29.389Z,40.58
2019-05-14T08:58:35.067Z,40.79
2019-05-14T08:59:40.263Z,41.42
2019-05-14T09:00:45.574Z,41.31
2019-05-14T09:02:01.874Z,40.28
2019-05-14T09:02:59.063Z,41.30
2019-05-14T09:04:03.548Z,41.76
2019-05-14T09:05:10.558Z,42.02
2019-05-14T09:06:18.539Z,43.24
2019-05-14T09:07:29.096Z,43.55
2019-05-14T09:08:34.458Z,43.19
2019-05-14T09:09:42.261Z,42.10
2019-05-14T09:10:49.602Z,42.16
2019-05-14T09:11:59.697Z,43.18
2019-05-14T09:13:04.164Z,42.74
2019-05-14T09:14:19.238Z,44.09
2019-05-14T09:15:28.691Z,43.57
2019-05-14T09:16:45.949Z,42.80
2019-05-14T09:17:40.067Z,39.62
2019-05-14T09:18:45.715Z,42.79
2019-05-14T09:20:02.179Z,38.86
2019-05-14T09:20:58.906Z,41.40
2019-05-14T09:22:03.978Z,36.68
2019-05-14T09:23:09.365Z,39.29
2019-05-14T09:24:14.430Z,42.34
2019-05-14T09:25:19.700Z,43.28
2019-05-14T09:26:25.921Z,41.56
2019-05-14T09:27:31.547Z,35.92
2019-05-14T09:28:39.008Z,33.62
2019-05-14T09:29:43.529Z,31.77
2019-05-14T09:30:49.170Z,35.28
2019-05-14T09:31:54.843Z,34.84
2019-05-14T09:32:59.517Z,30.63
2019-05-14T09:34:05.261Z,29.53
2019-05-14T09:35:10.803Z,29.23
2019-05-14T09:36:20.479Z,28.12
2019-05-14T09:37:23.569Z,34.38
2019-05-14T09:38:29.608Z,34.77
2019-05-14T09:39:34.779Z,37.88
2019-05-14T09:40:40.713Z,39.39
2019-05-14T09:41:48.229Z,39.42
2019-05-14T09:42:54.342Z,40.14
2019-05-14T09:43:59.521Z,39.41
2019-05-14T09:45:04.934Z,40.16
2019-05-14T09:46:09.759Z,41.06
2019-05-14T09:47:15.427Z,41.59
2019-05-14T09:48:20.003Z,42.41
2019-05-14T09:49:28.101Z,39.89
2019-05-14T09:50:32.504Z,40.17
2019-05-14T09:51:38.555Z,39.28
2019-05-14T09:52:43.849Z,42.06
2019-05-14T09:53:49.252Z,42.77
2019-05-14T09:54:54.497Z,42.05
2019-05-14T09:55:59.818Z,41.26
2019-05-14T09:57:04.907Z,39.36
2019-05-14T09:58:10.539Z,41.33
2019-05-14T09:59:15.593Z,43.76
2019-05-14T10:00:20.646Z,43.87
2019-05-14T10:01:25.560Z,44.72
2019-05-14T10:02:30.898Z,45.03
2019-05-14T10:03:38.683Z,44.74
2019-05-14T10:04:44.020Z,41.64
2019-05-14T10:05:50.146Z,43.19
2019-05-14T10:06:59.020Z,37.55
2019-05-14T10:08:03.150Z,35.28
2019-05-14T10:09:08.794Z,32.70
2019-05-14T10:10:13.978Z,34.13
2019-05-14T10:11:19.716Z,38.06
2019-05-14T10:12:25.387Z,39.97
2019-05-14T10:13:30.850Z,42.01
2019-05-14T10:14:35.633Z,40.24
2019-05-14T10:15:41.569Z,41.46
2019-05-14T10:16:48.885Z,40.61
2019-05-14T10:17:53.542Z,37.79
2019-05-14T10:18:58.781Z,37.45
2019-05-14T10:20:03.870Z,41.14
2019-05-14T10:21:09.168Z,41.69
2019-05-14T10:22:14.794Z,43.33
2019-05-14T10:23:19.902Z,42.99
2019-05-14T10:24:25.476Z,41.78
2019-05-14T10:25:30.698Z,40.01
2019-05-14T10:26:39.199Z,41.11
2019-05-14T10:27:43.680Z,42.36
2019-05-14T10:28:48.817Z,42.97
2019-05-14T10:29:54.470Z,43.31
2019-05-14T10:31:03.647Z,43.92
2019-05-14T10:32:08.692Z,43.77
2019-05-14T10:33:14.927Z,43.13
2019-05-14T10:34:20.144Z,40.41
2019-05-14T10:35:25.694Z,40.54
2019-05-14T10:36:31.137Z,37.57
2019-05-14T10:37:39.803Z,37.11
2019-05-14T10:38:43.816Z,40.01
2019-05-14T10:39:50.098Z,40.17
2019-05-14T10:40:55.291Z,42.57
2019-05-14T10:42:00.398Z,44.65
2019-05-14T10:43:05.315Z,45.05
2019-05-14T10:44:11.094Z,44.65
2019-05-14T10:45:18.479Z,39.14
2019-05-14T10:46:23.592Z,36.02
2019-05-14T10:47:29.207Z,34.43
2019-05-14T10:48:35.484Z,33.32
2019-05-14T10:49:40.216Z,32.94
2019-05-14T10:50:59.079Z,38.78
2019-05-14T10:51:52.992Z,40.08
2019-05-14T10:52:59.451Z,39.16
2019-05-14T10:54:18.783Z,41.72
2019-05-14T10:55:12.083Z,42.16
2019-05-14T10:56:19.354Z,42.97
2019-05-14T10:57:25.096Z,44.21
2019-05-14T10:58:29.930Z,44.44
2019-05-14T10:59:35.571Z,44.32
2019-05-14T11:00:42.006Z,44.78
2019-05-14T11:01:47.946Z,44.72
2019-05-14T11:02:53.014Z,45.25
2019-05-14T11:03:58.697Z,45.77
2019-05-14T11:05:03.757Z,46.29
2019-05-14T11:06:11.655Z,39.73
2019-05-14T11:07:15.699Z,37.52
2019-05-14T11:08:21.311Z,35.03
2019-05-14T11:09:28.601Z,36.72
2019-05-14T11:10:33.853Z,40.22
2019-05-14T11:11:38.863Z,40.81
2019-05-14T11:12:44.728Z,41.46
2019-05-14T11:13:49.197Z,43.88
2019-05-14T11:14:54.546Z,43.40
2019-05-14T11:15:59.846Z,43.61
2019-05-14T11:17:05.369Z,44.56
2019-05-14T11:18:10.684Z,44.70
2019-05-14T11:19:18.647Z,42.91
2019-05-14T11:20:22.522Z,44.53
2019-05-14T11:21:30.286Z,45.49
2019-05-14T11:22:35.586Z,45.20
2019-05-14T11:23:40.908Z,45.10
2019-05-14T11:24:45.925Z,46.66
2019-05-14T11:25:51.345Z,46.28
2019-05-14T11:26:58.996Z,44.16
2019-05-14T11:28:03.757Z,44.93
2019-05-14T11:29:09.860Z,44.76
2019-05-14T11:30:15.200Z,45.15
2019-05-14T11:31:20.054Z,45.01
2019-05-14T11:32:25.730Z,45.98
2019-05-14T11:33:31.146Z,45.76
2019-05-14T11:34:39.109Z,44.99
2019-05-14T11:35:43.543Z,40.43
2019-05-14T11:36:49.972Z,37.22
2019-05-14T11:37:55.271Z,34.49
2019-05-14T11:39:03.718Z,36.38
2019-05-14T11:40:08.738Z,38.08
2019-05-14T11:41:14.631Z,41.06
2019-05-14T11:42:19.843Z,42.36
2019-05-14T11:43:28.507Z,43.34
2019-05-14T11:44:32.544Z,44.18
2019-05-14T11:45:39.241Z,43.43
2019-05-14T11:46:52.302Z,44.80
2019-05-14T11:47:52.579Z,42.16
2019-05-14T11:48:59.491Z,38.67
2019-05-14T11:50:04.771Z,38.11
2019-05-14T11:51:09.791Z,38.34
2019-05-14T11:52:17.934Z,40.82
2019-05-14T11:53:22.201Z,41.62
2019-05-14T11:54:29.197Z,42.90
2019-05-14T11:55:34.220Z,43.95
2019-05-14T11:56:41.898Z,44.73
2019-05-14T11:57:48.513Z,42.15
2019-05-14T11:58:54.436Z,44.52
2019-05-14T11:59:59.359Z,45.36
2019-05-14T12:01:04.974Z,45.91
2019-05-14T12:02:10.078Z,44.13
2019-05-14T12:03:15.728Z,44.10
2019-05-14T12:04:20.854Z,43.24
2019-05-14T12:05:25.932Z,42.64
2019-05-14T12:06:31.114Z,42.59
2019-05-14T12:07:38.923Z,41.97
2019-05-14T12:08:43.306Z,41.77
2019-05-14T12:09:48.685Z,40.89
2019-05-14T12:10:59.005Z,37.19
2019-05-14T12:12:03.961Z,35.40
2019-05-14T12:13:09.366Z,34.02
2019-05-14T12:14:14.876Z,32.73
2019-05-14T12:15:19.704Z,32.03
2019-05-14T12:16:25.011Z,31.95
2019-05-14T12:17:30.221Z,32.13
2019-05-14T12:18:41.401Z,31.40
2019-05-14T12:19:43.634Z,31.47
2019-05-14T12:20:50.000Z,31.05
2019-05-14T12:22:03.621Z,30.39
2019-05-14T12:23:02.542Z,30.79
2019-05-14T12:24:13.447Z,28.31
2019-05-14T12:25:15.298Z,28.86
2019-05-14T12:26:19.807Z,29.46
2019-05-14T12:27:25.649Z,29.62
2019-05-14T12:28:30.491Z,28.68
2019-05-14T12:29:39.498Z,29.59
2019-05-14T12:30:43.429Z,29.17
2019-05-14T12:31:50.628Z,28.72
2019-05-14T12:32:58.849Z,28.62
2019-05-14T12:34:04.008Z,28.56
2019-05-14T12:35:08.783Z,27.83
2019-05-14T12:36:14.760Z,28.44
2019-05-14T12:37:19.558Z,28.99
2019-05-14T12:38:25.018Z,28.63
2019-05-14T12:39:29.951Z,27.89
2019-05-14T12:40:38.265Z,27.97
2019-05-14T12:41:42.785Z,28.19
2019-05-14T12:42:49.831Z,27.92
2019-05-14T12:43:55.160Z,27.99
2019-05-14T12:45:00.796Z,28.40
2019-05-14T12:46:06.319Z,28.08
2019-05-14T12:47:11.674Z,27.88
2019-05-14T12:48:18.574Z,28.06
2019-05-14T12:49:23.299Z,27.49
2019-05-14T12:50:28.570Z,27.45
2019-05-14T12:51:38.255Z,27.34
2019-05-14T12:52:41.421Z,27.42
2019-05-14T12:53:48.785Z,26.93
2019-05-14T12:54:54.053Z,26.49
2019-05-14T12:55:59.908Z,26.90
2019-05-14T12:57:04.692Z,26.82
2019-05-14T12:58:10.457Z,26.70
2019-05-14T12:59:15.483Z,27.09
2019-05-14T13:00:21.379Z,26.54
2019-05-14T13:01:27.049Z,27.01
2019-05-14T13:02:32.722Z,26.87
2019-05-14T13:03:37.894Z,27.18
2019-05-14T13:04:43.299Z,26.66
2019-05-14T13:05:49.311Z,26.69
2019-05-14T13:06:55.296Z,26.50
2019-05-14T13:08:00.495Z,26.56
2019-05-14T13:09:09.213Z,26.22
2019-05-14T13:10:13.798Z,25.99
2019-05-14T13:11:19.980Z,24.95
2019-05-14T13:12:25.063Z,25.76
2019-05-14T13:13:30.124Z,25.96
2019-05-14T13:14:35.236Z,26.46
2019-05-14T13:15:40.964Z,26.44
2019-05-14T13:16:48.470Z,26.55
2019-05-14T13:17:53.838Z,26.69
2019-05-14T13:18:59.782Z,26.83
2019-05-14T13:20:05.431Z,26.53
2019-05-14T13:21:10.733Z,26.43
2019-05-14T13:22:19.021Z,26.75
2019-05-14T13:23:22.795Z,26.85
2019-05-14T13:24:28.751Z,26.60
2019-05-14T13:25:33.693Z,26.69
2019-05-14T13:26:39.194Z,26.85
2019-05-14T13:27:44.552Z,27.13
2019-05-14T13:28:50.901Z,26.73
2019-05-14T13:29:56.363Z,26.81
2019-05-14T13:31:02.371Z,26.85
2019-05-14T13:32:11.950Z,26.69
2019-05-14T13:33:15.197Z,26.98
2019-05-14T13:34:20.363Z,26.86
2019-05-14T13:35:25.509Z,26.99
2019-05-14T13:36:30.698Z,26.59
2019-05-14T13:37:36.066Z,26.56
2019-05-14T13:38:41.288Z,26.39
2019-05-14T13:39:52.398Z,26.41
2019-05-14T13:40:53.888Z,26.01
2019-05-14T13:42:00.195Z,25.72
2019-05-14T13:43:05.256Z,26.16
2019-05-14T13:44:23.706Z,26.12
2019-05-14T13:45:19.262Z,26.00
2019-05-14T13:46:24.986Z,26.28
2019-05-14T13:47:30.010Z,26.69
2019-05-14T13:48:42.083Z,26.66
2019-05-14T13:49:43.565Z,26.69
2019-05-14T13:50:49.638Z,26.95
2019-05-14T13:51:54.453Z,26.88
2019-05-14T13:53:06.867Z,25.78
2019-05-14T13:54:08.481Z,25.85
2019-05-14T13:55:13.813Z,25.69
2019-05-14T13:56:19.335Z,26.13
2019-05-14T13:57:25.358Z,26.34
2019-05-14T13:58:30.863Z,26.00
2019-05-14T13:59:44.024Z,24.94
2019-05-14T14:00:43.870Z,25.41
2019-05-14T14:01:48.950Z,25.25
2019-05-14T14:02:55.071Z,26.31
2019-05-14T14:04:09.548Z,26.19
2019-05-14T14:05:08.710Z,26.42
2019-05-14T14:06:13.806Z,26.58
2019-05-14T14:07:19.220Z,26.39
2019-05-14T14:08:24.540Z,26.38
2019-05-14T14:09:31.546Z,26.32
2019-05-14T14:10:37.974Z,26.14